sensor_id;sensor_type;location;lat;lon;timestamp;pressure;altitude;pressure_sealevel;temperature;humidity
34961;BME280;30789;52.030;7.110;2023-05-01T00:00:33;101046.97;;;10.34;62.21
34961;BME280;30789;52.030;7.110;2023-05-01T00:03:01;101036.00;;;10.38;61.24
34961;BME280;30789;52.030;7.110;2023-05-01T00:05:27;101036.66;;;10.27;61.36
34961;BME280;30789;52.030;7.110;2023-05-01T00:07:54;101036.06;;;10.11;61.08
34961;BME280;30789;52.030;7.110;2023-05-01T00:10:20;101025.94;;;10.19;61.22
34961;BME280;30789;52.030;7.110;2023-05-01T00:12:47;101028.06;;;10.32;58.87
34961;BME280;30789;52.030;7.110;2023-05-01T00:15:15;101027.00;;;10.41;59.04
34961;BME280;30789;52.030;7.110;2023-05-01T00:17:41;101024.50;;;10.32;59.63
34961;BME280;30789;52.030;7.110;2023-05-01T00:20:09;101013.22;;;10.41;58.13
34961;BME280;30789;52.030;7.110;2023-05-01T00:22:35;101011.09;;;10.30;58.72
34961;BME280;30789;52.030;7.110;2023-05-01T00:25:02;100999.97;;;10.20;59.59
34961;BME280;30789;52.030;7.110;2023-05-01T00:27:29;101000.78;;;10.24;57.67
34961;BME280;30789;52.030;7.110;2023-05-01T00:29:55;101007.59;;;10.33;58.20
34961;BME280;30789;52.030;7.110;2023-05-01T00:32:23;100994.56;;;10.30;57.90
34961;BME280;30789;52.030;7.110;2023-05-01T00:34:50;100993.69;;;10.23;58.07
34961;BME280;30789;52.030;7.110;2023-05-01T00:37:16;100990.50;;;10.17;58.31
34961;BME280;30789;52.030;7.110;2023-05-01T00:39:43;100985.72;;;10.14;58.24
34961;BME280;30789;52.030;7.110;2023-05-01T00:42:09;100985.25;;;10.09;58.91
34961;BME280;30789;52.030;7.110;2023-05-01T00:44:36;100982.09;;;10.07;58.14
34961;BME280;30789;52.030;7.110;2023-05-01T00:47:03;100979.34;;;10.07;58.45
34961;BME280;30789;52.030;7.110;2023-05-01T00:49:32;100979.25;;;10.03;59.00
34961;BME280;30789;52.030;7.110;2023-05-01T00:51:58;100964.69;;;10.03;59.40
34961;BME280;30789;52.030;7.110;2023-05-01T00:54:26;100966.19;;;9.97;59.31
34961;BME280;30789;52.030;7.110;2023-05-01T00:56:53;100970.88;;;9.96;59.38
34961;BME280;30789;52.030;7.110;2023-05-01T00:59:20;100958.72;;;9.97;59.71
34961;BME280;30789;52.030;7.110;2023-05-01T01:01:46;100961.81;;;9.92;59.32
34961;BME280;30789;52.030;7.110;2023-05-01T01:04:13;100956.16;;;9.82;59.11
34961;BME280;30789;52.030;7.110;2023-05-01T01:06:48;100950.72;;;9.85;59.03
34961;BME280;30789;52.030;7.110;2023-05-01T01:09:26;100952.28;;;9.86;58.96
34961;BME280;30789;52.030;7.110;2023-05-01T01:12:05;100946.97;;;9.71;59.95
34961;BME280;30789;52.030;7.110;2023-05-01T01:14:39;100944.72;;;9.80;59.47
34961;BME280;30789;52.030;7.110;2023-05-01T01:17:12;100938.69;;;9.71;60.10
34961;BME280;30789;52.030;7.110;2023-05-01T01:19:57;100933.56;;;9.69;60.29
34961;BME280;30789;52.030;7.110;2023-05-01T01:22:33;100933.06;;;9.60;60.06
34961;BME280;30789;52.030;7.110;2023-05-01T01:25:32;100928.38;;;9.64;60.03
34961;BME280;30789;52.030;7.110;2023-05-01T01:28:16;100934.25;;;9.63;59.81
34961;BME280;30789;52.030;7.110;2023-05-01T01:31:08;100928.06;;;9.69;60.08
34961;BME280;30789;52.030;7.110;2023-05-01T01:33:58;100920.19;;;9.68;59.29
34961;BME280;30789;52.030;7.110;2023-05-01T01:36:35;100924.88;;;9.67;59.35
34961;BME280;30789;52.030;7.110;2023-05-01T01:39:08;100918.53;;;9.63;59.93
34961;BME280;30789;52.030;7.110;2023-05-01T01:41:37;100918.47;;;9.56;60.27
34961;BME280;30789;52.030;7.110;2023-05-01T01:44:08;100917.72;;;9.59;59.66
34961;BME280;30789;52.030;7.110;2023-05-01T01:46:38;100911.34;;;9.55;59.59
34961;BME280;30789;52.030;7.110;2023-05-01T01:49:12;100912.47;;;9.51;59.58
34961;BME280;30789;52.030;7.110;2023-05-01T01:51:40;100902.25;;;9.51;60.14
34961;BME280;30789;52.030;7.110;2023-05-01T01:54:08;100897.03;;;9.43;60.46
34961;BME280;30789;52.030;7.110;2023-05-01T01:56:39;100900.84;;;9.35;60.79
34961;BME280;30789;52.030;7.110;2023-05-01T01:59:09;100894.19;;;9.36;61.47
34961;BME280;30789;52.030;7.110;2023-05-01T02:01:37;100896.78;;;9.25;62.17
34961;BME280;30789;52.030;7.110;2023-05-01T02:04:04;100893.22;;;9.25;62.14
34961;BME280;30789;52.030;7.110;2023-05-01T02:06:34;100893.22;;;9.25;62.09
34961;BME280;30789;52.030;7.110;2023-05-01T02:09:03;100891.72;;;9.27;61.81
34961;BME280;30789;52.030;7.110;2023-05-01T02:11:32;100885.88;;;9.32;61.84
34961;BME280;30789;52.030;7.110;2023-05-01T02:14:01;100879.75;;;9.16;62.19
34961;BME280;30789;52.030;7.110;2023-05-01T02:16:29;100881.69;;;9.16;61.61
34961;BME280;30789;52.030;7.110;2023-05-01T02:18:56;100882.91;;;9.18;62.01
34961;BME280;30789;52.030;7.110;2023-05-01T02:21:24;100871.13;;;9.18;62.36
34961;BME280;30789;52.030;7.110;2023-05-01T02:23:54;100874.19;;;9.13;63.18
34961;BME280;30789;52.030;7.110;2023-05-01T02:26:24;100869.91;;;9.15;63.18
34961;BME280;30789;52.030;7.110;2023-05-01T02:28:52;100871.19;;;9.21;63.15
34961;BME280;30789;52.030;7.110;2023-05-01T02:31:19;100861.72;;;9.19;63.93
34961;BME280;30789;52.030;7.110;2023-05-01T02:33:46;100850.78;;;9.22;62.45
34961;BME280;30789;52.030;7.110;2023-05-01T02:36:12;100855.97;;;9.27;62.90
34961;BME280;30789;52.030;7.110;2023-05-01T02:38:39;100852.03;;;9.28;61.92
34961;BME280;30789;52.030;7.110;2023-05-01T02:41:08;100848.22;;;9.36;60.58
34961;BME280;30789;52.030;7.110;2023-05-01T02:43:36;100840.00;;;9.40;60.03
34961;BME280;30789;52.030;7.110;2023-05-01T02:46:06;100840.75;;;9.37;60.55
34961;BME280;30789;52.030;7.110;2023-05-01T02:48:35;100842.38;;;9.41;60.42
34961;BME280;30789;52.030;7.110;2023-05-01T02:51:03;100839.22;;;9.39;61.12
34961;BME280;30789;52.030;7.110;2023-05-01T02:53:31;100834.56;;;9.43;61.29
34961;BME280;30789;52.030;7.110;2023-05-01T02:55:58;100832.59;;;9.44;61.30
34961;BME280;30789;52.030;7.110;2023-05-01T02:58:29;100830.56;;;9.37;61.98
34961;BME280;30789;52.030;7.110;2023-05-01T03:00:57;100821.19;;;9.42;62.33
34961;BME280;30789;52.030;7.110;2023-05-01T03:03:23;100825.13;;;9.44;62.74
34961;BME280;30789;52.030;7.110;2023-05-01T03:05:50;100821.97;;;9.42;62.52
34961;BME280;30789;52.030;7.110;2023-05-01T03:08:16;100819.31;;;9.49;61.50
34961;BME280;30789;52.030;7.110;2023-05-01T03:10:43;100818.91;;;9.47;61.79
34961;BME280;30789;52.030;7.110;2023-05-01T03:13:10;100810.22;;;9.45;61.99
34961;BME280;30789;52.030;7.110;2023-05-01T03:15:38;100808.69;;;9.48;60.89
34961;BME280;30789;52.030;7.110;2023-05-01T03:18:04;100806.06;;;9.58;59.71
34961;BME280;30789;52.030;7.110;2023-05-01T03:20:31;100807.97;;;9.54;60.10
34961;BME280;30789;52.030;7.110;2023-05-01T03:22:58;100811.16;;;9.56;60.48
34961;BME280;30789;52.030;7.110;2023-05-01T03:25:24;100794.66;;;9.60;60.08
34961;BME280;30789;52.030;7.110;2023-05-01T03:27:51;100800.97;;;9.60;60.11
34961;BME280;30789;52.030;7.110;2023-05-01T03:30:17;100795.47;;;9.60;59.95
34961;BME280;30789;52.030;7.110;2023-05-01T03:32:45;100791.53;;;9.61;60.66
34961;BME280;30789;52.030;7.110;2023-05-01T03:35:11;100790.66;;;9.54;60.66
34961;BME280;30789;52.030;7.110;2023-05-01T03:37:38;100785.16;;;9.54;61.21
34961;BME280;30789;52.030;7.110;2023-05-01T03:40:06;100780.47;;;9.54;60.96
34961;BME280;30789;52.030;7.110;2023-05-01T03:42:32;100781.66;;;9.53;61.14
34961;BME280;30789;52.030;7.110;2023-05-01T03:44:59;100781.28;;;9.58;61.23
34961;BME280;30789;52.030;7.110;2023-05-01T03:47:25;100781.78;;;9.67;60.38
34961;BME280;30789;52.030;7.110;2023-05-01T03:49:53;100779.78;;;9.61;60.88
34961;BME280;30789;52.030;7.110;2023-05-01T03:52:19;100776.59;;;9.59;61.42
34961;BME280;30789;52.030;7.110;2023-05-01T03:54:46;100775.78;;;9.55;61.27
34961;BME280;30789;52.030;7.110;2023-05-01T03:57:14;100771.88;;;9.59;61.11
34961;BME280;30789;52.030;7.110;2023-05-01T03:59:40;100764.75;;;9.55;61.36
34961;BME280;30789;52.030;7.110;2023-05-01T04:02:08;100771.41;;;9.54;61.61
34961;BME280;30789;52.030;7.110;2023-05-01T04:04:35;100769.78;;;9.49;62.85
34961;BME280;30789;52.030;7.110;2023-05-01T04:07:03;100770.22;;;9.51;62.69
34961;BME280;30789;52.030;7.110;2023-05-01T04:09:30;100762.66;;;9.45;63.41
34961;BME280;30789;52.030;7.110;2023-05-01T04:11:57;100763.38;;;9.38;63.31
34961;BME280;30789;52.030;7.110;2023-05-01T04:14:23;100766.53;;;9.40;63.93
34961;BME280;30789;52.030;7.110;2023-05-01T04:16:50;100764.09;;;9.35;64.48
34961;BME280;30789;52.030;7.110;2023-05-01T04:19:17;100767.28;;;9.37;64.46
34961;BME280;30789;52.030;7.110;2023-05-01T04:21:43;100766.13;;;9.38;64.51
34961;BME280;30789;52.030;7.110;2023-05-01T04:24:11;100762.47;;;9.31;64.69
34961;BME280;30789;52.030;7.110;2023-05-01T04:26:38;100758.28;;;9.40;64.92
34961;BME280;30789;52.030;7.110;2023-05-01T04:29:06;100763.38;;;9.38;64.58
34961;BME280;30789;52.030;7.110;2023-05-01T04:31:33;100762.22;;;9.39;64.59
34961;BME280;30789;52.030;7.110;2023-05-01T04:34:00;100758.66;;;9.39;64.65
34961;BME280;30789;52.030;7.110;2023-05-01T04:36:26;100754.72;;;9.36;64.80
34961;BME280;30789;52.030;7.110;2023-05-01T04:38:53;100757.09;;;9.38;64.47
34961;BME280;30789;52.030;7.110;2023-05-01T04:41:21;100757.84;;;9.35;65.67
34961;BME280;30789;52.030;7.110;2023-05-01T04:43:48;100763.00;;;9.40;65.92
34961;BME280;30789;52.030;7.110;2023-05-01T04:46:14;100759.16;;;9.48;64.57
34961;BME280;30789;52.030;7.110;2023-05-01T04:48:41;100758.28;;;9.40;64.78
34961;BME280;30789;52.030;7.110;2023-05-01T04:51:07;100756.28;;;9.37;65.49
34961;BME280;30789;52.030;7.110;2023-05-01T04:53:34;100761.78;;;9.37;65.30
34961;BME280;30789;52.030;7.110;2023-05-01T04:56:00;100762.75;;;9.52;65.23
34961;BME280;30789;52.030;7.110;2023-05-01T04:58:28;100756.34;;;9.44;65.55
34961;BME280;30789;52.030;7.110;2023-05-01T05:00:55;100754.41;;;9.45;65.70
34961;BME280;30789;52.030;7.110;2023-05-01T05:03:22;100759.22;;;9.51;66.19
34961;BME280;30789;52.030;7.110;2023-05-01T05:05:48;100758.53;;;9.61;65.59
34961;BME280;30789;52.030;7.110;2023-05-01T05:08:15;100750.75;;;9.70;64.83
34961;BME280;30789;52.030;7.110;2023-05-01T05:10:41;100754.41;;;9.78;64.67
34961;BME280;30789;52.030;7.110;2023-05-01T05:13:08;100750.00;;;9.70;64.94
34961;BME280;30789;52.030;7.110;2023-05-01T05:15:36;100759.41;;;9.69;65.53
34961;BME280;30789;52.030;7.110;2023-05-01T05:18:02;100760.56;;;9.68;65.88
34961;BME280;30789;52.030;7.110;2023-05-01T05:20:29;100766.19;;;9.75;65.30
34961;BME280;30789;52.030;7.110;2023-05-01T05:22:55;100755.16;;;9.75;65.17
34961;BME280;30789;52.030;7.110;2023-05-01T05:25:23;100757.19;;;9.81;64.62
34961;BME280;30789;52.030;7.110;2023-05-01T05:27:49;100762.78;;;9.88;64.77
34961;BME280;30789;52.030;7.110;2023-05-01T05:30:16;100762.78;;;9.88;64.80
34961;BME280;30789;52.030;7.110;2023-05-01T05:32:45;100761.09;;;9.80;65.00
34961;BME280;30789;52.030;7.110;2023-05-01T05:35:11;100765.91;;;9.90;65.22
34961;BME280;30789;52.030;7.110;2023-05-01T05:37:38;100763.63;;;9.96;64.92
34961;BME280;30789;52.030;7.110;2023-05-01T05:40:06;100751.50;;;10.00;64.58
34961;BME280;30789;52.030;7.110;2023-05-01T05:42:32;100759.44;;;10.09;64.29
34961;BME280;30789;52.030;7.110;2023-05-01T05:44:59;100761.44;;;10.12;64.27
34961;BME280;30789;52.030;7.110;2023-05-01T05:47:26;100761.06;;;10.13;63.70
34961;BME280;30789;52.030;7.110;2023-05-01T05:49:54;100756.16;;;10.33;63.23
34961;BME280;30789;52.030;7.110;2023-05-01T05:52:20;100754.19;;;10.37;63.61
34961;BME280;30789;52.030;7.110;2023-05-01T05:54:47;100755.34;;;10.32;64.08
34961;BME280;30789;52.030;7.110;2023-05-01T05:57:13;100752.97;;;10.31;64.40
34961;BME280;30789;52.030;7.110;2023-05-01T05:59:40;100746.34;;;10.39;64.72
34961;BME280;30789;52.030;7.110;2023-05-01T06:02:06;100750.44;;;10.59;63.54
34961;BME280;30789;52.030;7.110;2023-05-01T06:04:33;100750.06;;;10.64;63.70
34961;BME280;30789;52.030;7.110;2023-05-01T06:07:01;100747.81;;;10.77;63.72
34961;BME280;30789;52.030;7.110;2023-05-01T06:09:27;100743.53;;;10.86;63.30
34961;BME280;30789;52.030;7.110;2023-05-01T06:11:54;100749.88;;;10.94;62.96
34961;BME280;30789;52.030;7.110;2023-05-01T06:14:21;100744.06;;;11.09;62.97
34961;BME280;30789;52.030;7.110;2023-05-01T06:16:47;100746.47;;;11.14;62.49
34961;BME280;30789;52.030;7.110;2023-05-01T06:19:14;100752.81;;;11.29;61.92
34961;BME280;30789;52.030;7.110;2023-05-01T06:21:40;100753.97;;;11.17;61.86
34961;BME280;30789;52.030;7.110;2023-05-01T06:24:08;100749.31;;;11.39;60.67
34961;BME280;30789;52.030;7.110;2023-05-01T06:26:35;100752.53;;;11.55;61.05
34961;BME280;30789;52.030;7.110;2023-05-01T06:29:01;100748.19;;;11.50;62.40
34961;BME280;30789;52.030;7.110;2023-05-01T06:31:28;100747.41;;;11.60;62.20
34961;BME280;30789;52.030;7.110;2023-05-01T06:33:54;100751.81;;;11.72;61.49
34961;BME280;30789;52.030;7.110;2023-05-01T06:36:21;100750.25;;;11.67;61.69
34961;BME280;30789;52.030;7.110;2023-05-01T06:38:47;100751.09;;;11.96;60.88
34961;BME280;30789;52.030;7.110;2023-05-01T06:41:15;100749.13;;;12.03;59.84
34961;BME280;30789;52.030;7.110;2023-05-01T06:43:42;100739.28;;;12.06;60.71
34961;BME280;30789;52.030;7.110;2023-05-01T06:46:08;100736.91;;;12.22;60.94
34961;BME280;30789;52.030;7.110;2023-05-01T06:48:35;100742.06;;;12.31;60.93
34961;BME280;30789;52.030;7.110;2023-05-01T06:51:01;100743.25;;;12.37;60.21
34961;BME280;30789;52.030;7.110;2023-05-01T06:53:28;100746.00;;;12.51;59.85
34961;BME280;30789;52.030;7.110;2023-05-01T06:55:54;100743.63;;;12.60;60.25
34961;BME280;30789;52.030;7.110;2023-05-01T06:58:22;100747.97;;;12.57;60.67
34961;BME280;30789;52.030;7.110;2023-05-01T07:00:49;100738.84;;;12.74;60.13
34961;BME280;30789;52.030;7.110;2023-05-01T07:03:15;100736.88;;;12.71;60.90
34961;BME280;30789;52.030;7.110;2023-05-01T07:05:42;100740.34;;;13.24;57.44
34961;BME280;30789;52.030;7.110;2023-05-01T07:08:08;100741.84;;;13.43;56.66
34961;BME280;30789;52.030;7.110;2023-05-01T07:10:35;100743.44;;;13.40;57.16
34961;BME280;30789;52.030;7.110;2023-05-01T07:13:01;100743.34;;;13.61;55.61
34961;BME280;30789;52.030;7.110;2023-05-01T07:15:29;100739.41;;;13.55;56.77
34961;BME280;30789;52.030;7.110;2023-05-01T07:17:56;100736.28;;;13.46;56.56
34961;BME280;30789;52.030;7.110;2023-05-01T07:20:22;100734.59;;;13.70;56.44
34961;BME280;30789;52.030;7.110;2023-05-01T07:22:49;100738.31;;;13.39;57.60
34961;BME280;30789;52.030;7.110;2023-05-01T07:25:15;100735.53;;;13.39;57.81
34961;BME280;30789;52.030;7.110;2023-05-01T07:27:42;100733.78;;;13.73;56.65
34961;BME280;30789;52.030;7.110;2023-05-01T07:30:09;100740.94;;;13.67;56.53
34961;BME280;30789;52.030;7.110;2023-05-01T07:32:37;100729.34;;;13.86;57.33
34961;BME280;30789;52.030;7.110;2023-05-01T07:35:05;100730.22;;;13.72;57.49
34961;BME280;30789;52.030;7.110;2023-05-01T07:37:32;100741.97;;;13.94;57.48
34961;BME280;30789;52.030;7.110;2023-05-01T07:39:58;100731.94;;;14.14;56.55
34961;BME280;30789;52.030;7.110;2023-05-01T07:42:25;100726.06;;;14.05;56.93
34961;BME280;30789;52.030;7.110;2023-05-01T07:44:52;100731.44;;;14.30;55.89
34961;BME280;30789;52.030;7.110;2023-05-01T07:47:18;100727.88;;;14.73;53.56
34961;BME280;30789;52.030;7.110;2023-05-01T07:49:46;100727.22;;;14.59;54.53
34961;BME280;30789;52.030;7.110;2023-05-01T07:52:13;100737.19;;;14.53;55.29
34961;BME280;30789;52.030;7.110;2023-05-01T07:54:41;100735.13;;;14.64;54.46
34961;BME280;30789;52.030;7.110;2023-05-01T07:57:07;100724.69;;;14.31;56.27
34961;BME280;30789;52.030;7.110;2023-05-01T07:59:34;100727.53;;;14.17;57.19
34961;BME280;30789;52.030;7.110;2023-05-01T08:02:00;100725.19;;;14.63;55.61
34961;BME280;30789;52.030;7.110;2023-05-01T08:04:27;100722.00;;;14.68;55.96
34961;BME280;30789;52.030;7.110;2023-05-01T08:06:55;100726.22;;;14.79;54.63
34961;BME280;30789;52.030;7.110;2023-05-01T08:09:22;100733.47;;;15.07;53.24
34961;BME280;30789;52.030;7.110;2023-05-01T08:11:48;100736.84;;;15.59;52.75
34961;BME280;30789;52.030;7.110;2023-05-01T08:14:15;100728.44;;;15.62;52.59
34961;BME280;30789;52.030;7.110;2023-05-01T08:16:42;100726.16;;;15.57;51.34
34961;BME280;30789;52.030;7.110;2023-05-01T08:19:09;100726.91;;;15.58;52.60
34961;BME280;30789;52.030;7.110;2023-05-01T08:21:35;100728.34;;;15.69;52.22
34961;BME280;30789;52.030;7.110;2023-05-01T08:24:08;100723.31;;;15.27;52.52
34961;BME280;30789;52.030;7.110;2023-05-01T08:26:34;100727.47;;;15.46;51.92
34961;BME280;30789;52.030;7.110;2023-05-01T08:29:01;100727.75;;;15.55;52.83
34961;BME280;30789;52.030;7.110;2023-05-01T08:31:28;100722.13;;;16.38;51.53
34961;BME280;30789;52.030;7.110;2023-05-01T08:33:54;100720.06;;;16.42;49.79
34961;BME280;30789;52.030;7.110;2023-05-01T08:36:21;100724.84;;;16.18;51.47
34961;BME280;30789;52.030;7.110;2023-05-01T08:38:47;100718.63;;;16.11;50.03
34961;BME280;30789;52.030;7.110;2023-05-01T08:41:19;100713.09;;;16.07;50.74
34961;BME280;30789;52.030;7.110;2023-05-01T08:43:46;100715.50;;;16.55;49.33
34961;BME280;30789;52.030;7.110;2023-05-01T08:46:15;100724.91;;;16.64;48.54
34961;BME280;30789;52.030;7.110;2023-05-01T08:48:44;100716.81;;;16.24;50.08
34961;BME280;30789;52.030;7.110;2023-05-01T08:51:12;100717.44;;;16.81;48.62
34961;BME280;30789;52.030;7.110;2023-05-01T08:53:42;100711.63;;;16.72;48.49
34961;BME280;30789;52.030;7.110;2023-05-01T08:56:10;100721.50;;;16.53;49.08
34961;BME280;30789;52.030;7.110;2023-05-01T08:58:39;100713.47;;;16.09;50.82
34961;BME280;30789;52.030;7.110;2023-05-01T09:01:10;100707.97;;;16.55;50.08
34961;BME280;30789;52.030;7.110;2023-05-01T09:03:38;100710.22;;;16.83;49.74
34961;BME280;30789;52.030;7.110;2023-05-01T09:06:07;100711.44;;;17.02;48.64
34961;BME280;30789;52.030;7.110;2023-05-01T09:08:34;100711.03;;;16.61;48.37
34961;BME280;30789;52.030;7.110;2023-05-01T09:11:02;100712.16;;;16.63;48.96
34961;BME280;30789;52.030;7.110;2023-05-01T09:13:29;100708.59;;;17.05;47.65
34961;BME280;30789;52.030;7.110;2023-05-01T09:15:57;100705.66;;;17.13;47.71
34961;BME280;30789;52.030;7.110;2023-05-01T09:18:24;100706.47;;;17.13;47.68
34961;BME280;30789;52.030;7.110;2023-05-01T09:20:51;100699.38;;;16.89;47.99
34961;BME280;30789;52.030;7.110;2023-05-01T09:23:18;100702.44;;;16.94;48.32
34961;BME280;30789;52.030;7.110;2023-05-01T09:25:46;100707.47;;;17.03;47.85
34961;BME280;30789;52.030;7.110;2023-05-01T09:28:12;100702.22;;;16.66;48.04
34961;BME280;30789;52.030;7.110;2023-05-01T09:30:39;100705.25;;;16.94;47.88
34961;BME280;30789;52.030;7.110;2023-05-01T09:33:10;100703.03;;;16.86;47.79
34961;BME280;30789;52.030;7.110;2023-05-01T09:35:50;100701.47;;;17.24;47.43
34961;BME280;30789;52.030;7.110;2023-05-01T09:38:19;100696.59;;;17.48;48.70
34961;BME280;30789;52.030;7.110;2023-05-01T09:40:45;100698.59;;;17.83;44.98
34961;BME280;30789;52.030;7.110;2023-05-01T09:43:12;100692.41;;;17.40;45.51
34961;BME280;30789;52.030;7.110;2023-05-01T09:45:40;100694.44;;;17.55;46.25
34961;BME280;30789;52.030;7.110;2023-05-01T09:48:09;100686.06;;;17.91;45.94
34961;BME280;30789;52.030;7.110;2023-05-01T09:50:37;100694.34;;;17.94;45.87
34961;BME280;30789;52.030;7.110;2023-05-01T09:53:06;100697.66;;;17.73;46.05
34961;BME280;30789;52.030;7.110;2023-05-01T09:55:33;100688.59;;;18.33;44.43
34961;BME280;30789;52.030;7.110;2023-05-01T09:58:00;100694.47;;;19.28;42.10
34961;BME280;30789;52.030;7.110;2023-05-01T10:00:28;100686.03;;;19.16;42.01
34961;BME280;30789;52.030;7.110;2023-05-01T10:02:54;100686.72;;;19.98;41.86
34961;BME280;30789;52.030;7.110;2023-05-01T10:05:22;100688.53;;;20.64;39.93
34961;BME280;30789;52.030;7.110;2023-05-01T10:07:57;100685.97;;;20.57;39.57
34961;BME280;30789;52.030;7.110;2023-05-01T10:10:24;100676.25;;;20.83;40.74
34961;BME280;30789;52.030;7.110;2023-05-01T10:12:50;100690.78;;;21.86;38.29
34961;BME280;30789;52.030;7.110;2023-05-01T10:15:17;100676.75;;;22.17;38.27
34961;BME280;30789;52.030;7.110;2023-05-01T10:17:44;100685.25;;;22.53;38.02
34961;BME280;30789;52.030;7.110;2023-05-01T10:20:13;100693.41;;;22.78;36.43
34961;BME280;30789;52.030;7.110;2023-05-01T10:22:41;100691.53;;;22.75;36.81
34961;BME280;30789;52.030;7.110;2023-05-01T10:25:09;100682.66;;;22.28;37.30
34961;BME280;30789;52.030;7.110;2023-05-01T10:27:37;100679.34;;;21.71;39.00
34961;BME280;30789;52.030;7.110;2023-05-01T10:30:05;100682.06;;;21.84;38.28
34961;BME280;30789;52.030;7.110;2023-05-01T10:32:34;100687.78;;;22.20;37.83
34961;BME280;30789;52.030;7.110;2023-05-01T10:35:04;100678.94;;;22.40;37.19
34961;BME280;30789;52.030;7.110;2023-05-01T10:37:34;100674.34;;;22.82;36.64
34961;BME280;30789;52.030;7.110;2023-05-01T10:43:14;100671.97;;;23.43;35.24
34961;BME280;30789;52.030;7.110;2023-05-01T10:45:41;100678.25;;;23.02;35.02
34961;BME280;30789;52.030;7.110;2023-05-01T10:48:09;100662.78;;;23.76;33.87
34961;BME280;30789;52.030;7.110;2023-05-01T10:51:06;100670.22;;;23.97;33.02
34961;BME280;30789;52.030;7.110;2023-05-01T10:53:34;100675.06;;;23.54;34.76
34961;BME280;30789;52.030;7.110;2023-05-01T10:56:02;100669.94;;;24.89;32.81
34961;BME280;30789;52.030;7.110;2023-05-01T10:58:55;100664.34;;;25.18;31.21
34961;BME280;30789;52.030;7.110;2023-05-01T11:01:30;100665.69;;;23.90;32.56
34961;BME280;30789;52.030;7.110;2023-05-01T11:03:57;100666.78;;;24.49;32.10
34961;BME280;30789;52.030;7.110;2023-05-01T11:06:24;100662.09;;;24.22;31.37
34961;BME280;30789;52.030;7.110;2023-05-01T11:08:51;100653.75;;;24.51;34.00
34961;BME280;30789;52.030;7.110;2023-05-01T11:11:46;100657.72;;;24.92;31.01
34961;BME280;30789;52.030;7.110;2023-05-01T11:14:17;100654.25;;;23.52;32.35
34961;BME280;30789;52.030;7.110;2023-05-01T11:16:44;100656.94;;;24.21;32.19
34961;BME280;30789;52.030;7.110;2023-05-01T11:19:44;100648.28;;;24.10;33.27
34961;BME280;30789;52.030;7.110;2023-05-01T11:22:16;100647.13;;;24.40;32.15
34961;BME280;30789;52.030;7.110;2023-05-01T11:24:43;100651.34;;;24.59;31.45
34961;BME280;30789;52.030;7.110;2023-05-01T11:27:13;100639.91;;;24.86;31.38
34961;BME280;30789;52.030;7.110;2023-05-01T11:29:43;100637.78;;;25.68;31.86
34961;BME280;30789;52.030;7.110;2023-05-01T11:32:19;100635.91;;;26.49;29.80
34961;BME280;30789;52.030;7.110;2023-05-01T11:34:48;100632.13;;;25.83;29.52
34961;BME280;30789;52.030;7.110;2023-05-01T11:37:16;100638.44;;;26.47;28.79
34961;BME280;30789;52.030;7.110;2023-05-01T11:39:50;100641.28;;;26.27;29.64
34961;BME280;30789;52.030;7.110;2023-05-01T11:42:19;100635.78;;;26.78;28.52
34961;BME280;30789;52.030;7.110;2023-05-01T11:45:07;100634.38;;;26.94;29.49
34961;BME280;30789;52.030;7.110;2023-05-01T11:47:35;100631.16;;;25.71;27.79
34961;BME280;30789;52.030;7.110;2023-05-01T11:50:01;100625.94;;;26.13;30.19
34961;BME280;30789;52.030;7.110;2023-05-01T11:52:28;100630.19;;;26.84;28.59
34961;BME280;30789;52.030;7.110;2023-05-01T11:54:55;100627.69;;;26.91;27.36
34961;BME280;30789;52.030;7.110;2023-05-01T11:57:22;100629.53;;;26.34;26.95
34961;BME280;30789;52.030;7.110;2023-05-01T11:59:48;100617.31;;;26.42;27.14
34961;BME280;30789;52.030;7.110;2023-05-01T12:02:19;100626.09;;;26.24;27.66
34961;BME280;30789;52.030;7.110;2023-05-01T12:04:46;100622.53;;;25.60;27.61
34961;BME280;30789;52.030;7.110;2023-05-01T12:07:19;100618.00;;;24.66;28.81
34961;BME280;30789;52.030;7.110;2023-05-01T12:09:47;100625.34;;;24.64;28.34
34961;BME280;30789;52.030;7.110;2023-05-01T12:12:14;100622.97;;;23.92;31.48
34961;BME280;30789;52.030;7.110;2023-05-01T12:14:41;100618.16;;;25.01;29.56
34961;BME280;30789;52.030;7.110;2023-05-01T12:17:07;100616.56;;;24.24;30.04
34961;BME280;30789;52.030;7.110;2023-05-01T12:19:46;100608.66;;;24.37;31.77
34961;BME280;30789;52.030;7.110;2023-05-01T12:22:14;100613.03;;;24.76;31.18
34961;BME280;30789;52.030;7.110;2023-05-01T12:24:48;100610.97;;;25.29;30.89
34961;BME280;30789;52.030;7.110;2023-05-01T12:27:18;100613.25;;;25.74;31.13
34961;BME280;30789;52.030;7.110;2023-05-01T12:29:46;100615.91;;;25.05;32.10
34961;BME280;30789;52.030;7.110;2023-05-01T12:32:29;100613.00;;;24.99;30.99
34961;BME280;30789;52.030;7.110;2023-05-01T12:34:58;100613.09;;;25.19;33.32
34961;BME280;30789;52.030;7.110;2023-05-01T12:37:30;100607.22;;;25.81;33.30
34961;BME280;30789;52.030;7.110;2023-05-01T12:39:57;100609.25;;;24.41;33.65
34961;BME280;30789;52.030;7.110;2023-05-01T12:42:31;100613.13;;;23.64;34.95
34961;BME280;30789;52.030;7.110;2023-05-01T12:44:59;100611.31;;;23.42;35.69
34961;BME280;30789;52.030;7.110;2023-05-01T12:47:26;100609.16;;;23.19;36.65
34961;BME280;30789;52.030;7.110;2023-05-01T12:50:03;100606.09;;;22.90;33.68
34961;BME280;30789;52.030;7.110;2023-05-01T12:52:31;100600.94;;;22.17;34.47
34961;BME280;30789;52.030;7.110;2023-05-01T12:55:01;100598.41;;;23.09;34.63
34961;BME280;30789;52.030;7.110;2023-05-01T12:57:28;100596.09;;;22.26;35.29
34961;BME280;30789;52.030;7.110;2023-05-01T12:59:58;100589.22;;;23.08;35.50
34961;BME280;30789;52.030;7.110;2023-05-01T13:02:29;100598.91;;;23.91;33.61